Time,TemperatureF,DewpointF,PressureIn,WindDirection,WindDirectionDegrees,WindSpeedMPH,WindSpeedGustMPH,Humidity,HourlyPrecipIn,Conditions,Clouds,dailyrainin,SoftwareType,DateUTC
2013-07-29 00:01:00,61.0,56.0,30.07,NW,325,0.0,0.0,82,0.00,,,0.00,weatherlink.com 1.10,2013-07-29 04:01:00,
2013-07-29 00:16:00,60.2,55.0,30.07,NW,325,0.0,0.0,84,0.00,,,0.00,weatherlink.com 1.10,2013-07-29 04:16:00,
2013-07-29 00:31:00,59.5,55.0,30.07,NW,325,0.0,0.0,85,0.00,,,0.00,weatherlink.com 1.10,2013-07-29 04:31:00,
2013-07-29 00:46:00,59.1,55.0,30.07,NW,325,0.0,0.0,87,0.00,,,0.00,weatherlink.com 1.10,2013-07-29 04:46:00,
2013-07-29 01:01:00,59.0,55.0,30.07,NW,326,0.0,0.0,86,0.00,,,0.00,weatherlink.com 1.10,2013-07-29 05:01:00,
2013-07-29 01:16:00,58.8,55.0,30.07,NW,326,0.0,0.0,87,0.00,,,0.00,weatherlink.com 1.10,2013-07-29 05:16:00,
2013-07-29 01:46:00,57.5,54.0,30.07,NW,326,0.0,0.0,89,0.00,,,0.00,weatherlink.com 1.10,2013-07-29 05:46:00,
2013-07-29 02:01:00,57.3,55.0,30.07,NW,326,0.0,0.0,91,0.00,,,0.00,weatherlink.com 1.10,2013-07-29 06:01:00,
2013-07-29 02:16:00,57.1,55.0,30.07,NW,326,0.0,0.0,91,0.00,,,0.00,weatherlink.com 1.10,2013-07-29 06:16:00,
2013-07-29 02:31:00,57.2,54.0,30.07,NW,324,0.0,0.0,90,0.00,,,0.00,weatherlink.com 1.10,2013-07-29 06:31:00,
2013-07-29 02:46:00,57.2,54.0,30.07,NW,326,0.0,0.0,89,0.00,,,0.00,weatherlink.com 1.10,2013-07-29 06:46:00,
2013-07-29 03:16:00,57.0,54.0,30.07,NW,326,0.0,0.0,89,0.00,,,0.00,weatherlink.com 1.10,2013-07-29 07:16:00,
2013-07-29 03:31:00,56.8,54.0,30.08,NW,326,0.0,0.0,90,0.00,,,0.00,weatherlink.com 1.10,2013-07-29 07:31:00,
2013-07-29 03:46:00,56.9,54.0,30.08,NW,326,0.0,0.0,91,0.00,,,0.00,weatherlink.com 1.10,2013-07-29 07:46:00,
2013-07-29 04:01:00,56.8,55.0,30.09,NW,326,0.0,0.0,92,0.00,,,0.00,weatherlink.com 1.10,2013-07-29 08:01:00,
2013-07-29 04:16:00,56.6,55.0,30.09,NW,325,0.0,0.0,93,0.00,,,0.00,weatherlink.com 1.10,2013-07-29 08:16:00,
2013-07-29 04:31:00,56.5,55.0,30.09,NW,326,0.0,0.0,93,0.00,,,0.00,weatherlink.com 1.10,2013-07-29 08:31:00,
2013-07-29 04:46:00,56.3,54.0,30.09,NW,326,0.0,0.0,93,0.00,,,0.00,weatherlink.com 1.10,2013-07-29 08:46:00,
2013-07-29 05:01:00,56.3,55.0,30.09,NW,326,0.0,0.0,94,0.00,,,0.00,weatherlink.com 1.10,2013-07-29 09:01:00,
2013-07-29 05:16:00,56.3,55.0,30.10,NW,326,0.0,0.0,94,0.00,,,0.00,weatherlink.com 1.10,2013-07-29 09:16:00,
2013-07-29 05:31:00,56.1,54.0,30.10,NW,326,0.0,0.0,94,0.00,,,0.00,weatherlink.com 1.10,2013-07-29 09:31:00,
2013-07-29 06:02:00,55.9,55.0,30.11,NW,326,0.0,0.0,95,0.00,,,0.00,weatherlink.com 1.10,2013-07-29 10:02:00,
2013-07-29 06:16:00,55.8,54.0,30.11,NW,326,0.0,0.0,95,0.00,,,0.00,weatherlink.com 1.10,2013-07-29 10:16:00,
2013-07-29 06:47:00,55.9,55.0,30.12,NW,324,0.0,0.0,95,0.00,,,0.00,weatherlink.com 1.10,2013-07-29 10:47:00,
2013-07-29 07:01:00,56.5,55.0,30.12,NW,325,0.0,0.0,96,0.00,,,0.00,weatherlink.com 1.10,2013-07-29 11:01:00,
2013-07-29 07:17:00,57.1,56.0,30.12,NW,325,0.0,2.0,95,0.00,,,0.00,weatherlink.com 1.10,2013-07-29 11:17:00,
2013-07-29 07:32:00,58.0,57.0,30.13,NW,325,0.0,0.0,95,0.00,,,0.00,weatherlink.com 1.10,2013-07-29 11:32:00,
2013-07-29 07:47:00,58.8,57.0,30.13,NW,324,0.0,0.0,95,0.00,,,0.00,weatherlink.com 1.10,2013-07-29 11:47:00,
2013-07-29 08:02:00,59.5,58.0,30.13,SW,228,0.0,0.0,93,0.00,,,0.00,weatherlink.com 1.10,2013-07-29 12:02:00,
2013-07-29 08:47:00,67.1,60.0,30.14,SW,228,0.0,0.0,78,0.00,,,0.00,weatherlink.com 1.10,2013-07-29 12:47:00,
2013-07-29 09:02:00,69.5,60.0,30.14,WSW,248,0.0,0.0,72,0.00,,,0.00,weatherlink.com 1.10,2013-07-29 13:02:00,
2013-07-29 09:17:00,70.9,61.0,30.14,SE,135,0.0,0.0,70,0.00,,,0.00,weatherlink.com 1.10,2013-07-29 13:17:00,
2013-07-29 09:32:00,72.0,60.0,30.14,WSW,243,0.0,0.0,67,0.00,,,0.00,weatherlink.com 1.10,2013-07-29 13:32:00,
2013-07-29 09:47:00,71.4,60.0,30.15,West,274,0.0,5.0,67,0.00,,,0.00,weatherlink.com 1.10,2013-07-29 13:47:00,
2013-07-29 10:02:00,72.5,59.0,30.15,WSW,238,1.0,4.0,63,0.00,,,0.00,weatherlink.com 1.10,2013-07-29 14:02:00,
2013-07-29 10:32:00,74.0,60.0,30.16,WSW,245,1.0,5.0,61,0.00,,,0.00,weatherlink.com 1.10,2013-07-29 14:32:00,
2013-07-29 10:47:00,74.9,59.0,30.16,SW,233,4.0,7.0,59,0.00,,,0.00,weatherlink.com 1.10,2013-07-29 14:47:00,
2013-07-29 11:17:00,74.1,58.0,30.16,WSW,242,1.0,9.0,57,0.00,,,0.00,weatherlink.com 1.10,2013-07-29 15:17:00,
2013-07-29 11:47:00,76.1,59.0,30.16,South,179,5.0,7.0,56,0.00,,,0.00,weatherlink.com 1.10,2013-07-29 15:47:00,
2013-07-29 12:02:00,76.5,60.0,30.16,SSW,210,3.0,8.0,56,0.00,,,0.00,weatherlink.com 1.10,2013-07-29 16:02:00,
2013-07-29 12:17:00,75.6,60.0,30.16,SSW,195,1.0,8.0,58,0.00,,,0.00,weatherlink.com 1.10,2013-07-29 16:17:00,
2013-07-29 12:32:00,77.0,61.0,30.16,WNW,285,4.0,4.0,58,0.00,,,0.00,weatherlink.com 1.10,2013-07-29 16:32:00,
2013-07-29 12:47:00,76.0,61.0,30.16,SW,231,1.0,6.0,59,0.00,,,0.00,weatherlink.com 1.10,2013-07-29 16:47:00,
2013-07-29 13:02:00,76.5,60.0,30.16,SW,229,3.0,4.0,56,0.00,,,0.00,weatherlink.com 1.10,2013-07-29 17:02:00,
2013-07-29 13:17:00,78.0,60.0,30.16,West,277,1.0,6.0,54,0.00,,,0.00,weatherlink.com 1.10,2013-07-29 17:17:00,
2013-07-29 13:32:00,78.4,58.0,30.15,WNW,301,2.0,8.0,49,0.00,,,0.00,weatherlink.com 1.10,2013-07-29 17:32:00,
2013-07-29 13:47:00,77.6,59.0,30.15,WSW,246,1.0,6.0,53,0.00,,,0.00,weatherlink.com 1.10,2013-07-29 17:47:00,
2013-07-29 14:03:00,79.2,59.0,30.15,SW,233,0.0,6.0,51,0.00,,,0.00,weatherlink.com 1.10,2013-07-29 18:03:00,
2013-07-29 14:48:00,79.7,58.0,30.15,SSW,210,2.0,4.0,48,0.00,,,0.00,weatherlink.com 1.10,2013-07-29 18:48:00,
2013-07-29 15:18:00,79.1,58.0,30.14,WSW,239,2.0,7.0,49,0.00,,,0.00,weatherlink.com 1.10,2013-07-29 19:18:00,
2013-07-29 15:33:00,80.2,59.0,30.14,WSW,253,1.0,8.0,48,0.00,,,0.00,weatherlink.com 1.10,2013-07-29 19:33:00,
2013-07-29 16:18:00,79.5,59.0,30.14,WNW,284,4.0,7.0,49,0.00,,,0.00,weatherlink.com 1.10,2013-07-29 20:18:00,
2013-07-29 16:33:00,79.0,60.0,30.13,NW,324,1.0,7.0,52,0.00,,,0.00,weatherlink.com 1.10,2013-07-29 20:33:00,
2013-07-29 16:48:00,78.8,59.0,30.14,NW,307,3.0,10.0,51,0.00,,,0.00,weatherlink.com 1.10,2013-07-29 20:48:00,
2013-07-29 17:03:00,78.3,60.0,30.14,SW,229,0.0,2.0,53,0.00,,,0.00,weatherlink.com 1.10,2013-07-29 21:03:00,
2013-07-29 17:18:00,78.6,60.0,30.14,WSW,239,1.0,6.0,53,0.00,,,0.00,weatherlink.com 1.10,2013-07-29 21:18:00,
2013-07-29 17:33:00,79.9,61.0,30.14,WNW,287,1.0,4.0,53,0.00,,,0.00,weatherlink.com 1.10,2013-07-29 21:33:00,
2013-07-29 18:03:00,79.2,61.0,30.14,WSW,238,0.0,4.0,53,0.00,,,0.00,weatherlink.com 1.10,2013-07-29 22:03:00,
2013-07-29 18:33:00,80.2,59.0,30.14,WNW,283,2.0,5.0,49,0.00,,,0.00,weatherlink.com 1.10,2013-07-29 22:33:00,
2013-07-29 18:48:00,79.2,59.0,30.15,NW,306,2.0,5.0,50,0.00,,,0.00,weatherlink.com 1.10,2013-07-29 22:48:00,
2013-07-29 19:18:00,78.4,59.0,30.16,NW,318,2.0,6.0,51,0.00,,,0.00,weatherlink.com 1.10,2013-07-29 23:18:00,
2013-07-29 19:48:00,76.0,59.0,30.16,WNW,288,2.0,7.0,55,0.00,,,0.00,weatherlink.com 1.10,2013-07-29 23:48:00,
2013-07-29 20:03:00,75.0,59.0,30.16,NW,309,0.0,2.0,58,0.00,,,0.00,weatherlink.com 1.10,2013-07-30 00:03:00,
2013-07-29 20:48:00,70.5,60.0,30.17,WNW,301,1.0,1.0,69,0.00,,,0.00,weatherlink.com 1.10,2013-07-30 00:48:00,
2013-07-29 21:03:00,69.3,60.0,30.17,NW,320,0.0,0.0,72,0.00,,,0.00,weatherlink.com 1.10,2013-07-30 01:03:00,
2013-07-29 21:18:00,68.3,60.0,30.17,NW,318,0.0,0.0,76,0.00,,,0.00,weatherlink.com 1.10,2013-07-30 01:18:00,
2013-07-29 21:33:00,67.5,60.0,30.17,NW,326,0.0,0.0,77,0.00,,,0.00,weatherlink.com 1.10,2013-07-30 01:33:00,
2013-07-29 21:48:00,66.9,60.0,30.17,NW,317,0.0,2.0,79,0.00,,,0.00,weatherlink.com 1.10,2013-07-30 01:48:00,
2013-07-29 22:03:00,66.4,60.0,30.17,NW,315,0.0,1.0,80,0.00,,,0.00,weatherlink.com 1.10,2013-07-30 02:03:00,
2013-07-29 22:18:00,65.6,59.0,30.18,NW,315,0.0,0.0,80,0.00,,,0.00,weatherlink.com 1.10,2013-07-30 02:18:00,
2013-07-29 22:48:00,64.3,59.0,30.18,NW,315,0.0,0.0,82,0.00,,,0.00,weatherlink.com 1.10,2013-07-30 02:48:00,
2013-07-29 23:03:00,63.9,59.0,30.18,NW,315,0.0,0.0,84,0.00,,,0.00,weatherlink.com 1.10,2013-07-30 03:03:00,
2013-07-29 23:18:00,63.5,59.0,30.18,NW,315,0.0,0.0,85,0.00,,,0.00,weatherlink.com 1.10,2013-07-30 03:18:00,
2013-07-29 23:33:00,63.5,59.0,30.18,NW,315,0.0,1.0,85,0.00,,,0.00,weatherlink.com 1.10,2013-07-30 03:33:00,
2013-07-29 23:48:00,63.4,59.0,30.19,NW,315,0.0,0.0,84,0.00,,,0.00,weatherlink.com 1.10,2013-07-30 03:48:00,